sensor_id;sensor_type;location;lat;lon;timestamp;temperature;humidity
17452;DHT22;8843;48.838;9.324;2024-03-08T00:02:00;8.90;92.00
17452;DHT22;8843;48.838;9.324;2024-03-08T00:04:27;8.90;92.00
17452;DHT22;8843;48.838;9.324;2024-03-08T00:06:54;8.90;92.00
17452;DHT22;8843;48.838;9.324;2024-03-08T00:09:22;8.90;92.00
17452;DHT22;8843;48.838;9.324;2024-03-08T00:11:49;8.90;92.00
17452;DHT22;8843;48.838;9.324;2024-03-08T00:14:17;8.90;92.00
17452;DHT22;8843;48.838;9.324;2024-03-08T00:16:44;8.90;92.00
17452;DHT22;8843;48.838;9.324;2024-03-08T00:19:11;8.90;92.00
17452;DHT22;8843;48.838;9.324;2024-03-08T00:21:38;8.90;92.00
17452;DHT22;8843;48.838;9.324;2024-03-08T00:24:05;8.90;92.00
17452;DHT22;8843;48.838;9.324;2024-03-08T00:26:33;8.90;92.00
17452;DHT22;8843;48.838;9.324;2024-03-08T00:29:00;8.90;91.90
17452;DHT22;8843;48.838;9.324;2024-03-08T00:31:27;8.90;91.90
17452;DHT22;8843;48.838;9.324;2024-03-08T00:33:56;8.90;91.90
17452;DHT22;8843;48.838;9.324;2024-03-08T00:36:23;8.90;91.90
17452;DHT22;8843;48.838;9.324;2024-03-08T00:38:50;8.90;91.90
17452;DHT22;8843;48.838;9.324;2024-03-08T00:41:17;8.90;91.90
17452;DHT22;8843;48.838;9.324;2024-03-08T00:43:45;8.90;91.80
17452;DHT22;8843;48.838;9.324;2024-03-08T00:46:13;8.90;91.90
17452;DHT22;8843;48.838;9.324;2024-03-08T00:48:40;8.90;92.10
17452;DHT22;8843;48.838;9.324;2024-03-08T00:51:08;8.80;91.80
17452;DHT22;8843;48.838;9.324;2024-03-08T00:53:35;8.80;91.70
17452;DHT22;8843;48.838;9.324;2024-03-08T00:56:03;8.80;91.70
17452;DHT22;8843;48.838;9.324;2024-03-08T00:58:30;8.80;91.70
17452;DHT22;8843;48.838;9.324;2024-03-08T01:00:58;8.80;91.70
17452;DHT22;8843;48.838;9.324;2024-03-08T01:03:26;8.80;91.70
17452;DHT22;8843;48.838;9.324;2024-03-08T01:05:53;8.80;91.70
17452;DHT22;8843;48.838;9.324;2024-03-08T01:08:19;8.80;92.00
17452;DHT22;8843;48.838;9.324;2024-03-08T01:10:47;8.80;91.70
17452;DHT22;8843;48.838;9.324;2024-03-08T01:13:13;8.80;91.70
17452;DHT22;8843;48.838;9.324;2024-03-08T01:15:40;8.80;91.70
17452;DHT22;8843;48.838;9.324;2024-03-08T01:18:09;8.80;91.70
17452;DHT22;8843;48.838;9.324;2024-03-08T01:20:36;8.80;91.70
17452;DHT22;8843;48.838;9.324;2024-03-08T01:23:03;8.80;91.60
17452;DHT22;8843;48.838;9.324;2024-03-08T01:25:32;8.80;91.60
17452;DHT22;8843;48.838;9.324;2024-03-08T01:27:59;8.80;91.60
17452;DHT22;8843;48.838;9.324;2024-03-08T01:30:26;8.80;91.60
17452;DHT22;8843;48.838;9.324;2024-03-08T01:32:53;8.80;91.60
17452;DHT22;8843;48.838;9.324;2024-03-08T01:35:22;8.80;91.60
17452;DHT22;8843;48.838;9.324;2024-03-08T01:37:49;8.80;91.50
17452;DHT22;8843;48.838;9.324;2024-03-08T01:40:16;8.80;91.50
17452;DHT22;8843;48.838;9.324;2024-03-08T01:42:43;8.80;91.50
17452;DHT22;8843;48.838;9.324;2024-03-08T01:45:10;8.80;91.50
17452;DHT22;8843;48.838;9.324;2024-03-08T01:47:38;8.80;91.50
17452;DHT22;8843;48.838;9.324;2024-03-08T01:50:06;8.80;91.50
17452;DHT22;8843;48.838;9.324;2024-03-08T01:52:36;8.80;91.50
17452;DHT22;8843;48.838;9.324;2024-03-08T01:55:06;8.80;91.50
17452;DHT22;8843;48.838;9.324;2024-03-08T01:57:34;8.80;91.50
17452;DHT22;8843;48.838;9.324;2024-03-08T02:00:04;8.80;91.40
17452;DHT22;8843;48.838;9.324;2024-03-08T02:02:32;8.70;91.40
17452;DHT22;8843;48.838;9.324;2024-03-08T02:05:00;8.70;91.40
17452;DHT22;8843;48.838;9.324;2024-03-08T02:07:28;8.70;91.40
17452;DHT22;8843;48.838;9.324;2024-03-08T02:09:57;8.70;91.40
17452;DHT22;8843;48.838;9.324;2024-03-08T02:12:24;8.70;91.40
17452;DHT22;8843;48.838;9.324;2024-03-08T02:14:51;8.70;91.30
17452;DHT22;8843;48.838;9.324;2024-03-08T02:17:19;8.70;91.30
17452;DHT22;8843;48.838;9.324;2024-03-08T02:19:46;8.70;91.30
17452;DHT22;8843;48.838;9.324;2024-03-08T02:22:15;8.70;91.30
17452;DHT22;8843;48.838;9.324;2024-03-08T02:24:42;8.70;91.30
17452;DHT22;8843;48.838;9.324;2024-03-08T02:27:08;8.70;91.30
17452;DHT22;8843;48.838;9.324;2024-03-08T02:29:37;8.70;91.30
17452;DHT22;8843;48.838;9.324;2024-03-08T02:32:06;8.70;91.30
17452;DHT22;8843;48.838;9.324;2024-03-08T02:34:33;8.70;91.20
17452;DHT22;8843;48.838;9.324;2024-03-08T02:37:00;8.70;91.20
17452;DHT22;8843;48.838;9.324;2024-03-08T02:39:29;8.70;91.30
17452;DHT22;8843;48.838;9.324;2024-03-08T02:41:57;8.70;91.60
17452;DHT22;8843;48.838;9.324;2024-03-08T02:44:24;8.70;91.20
17452;DHT22;8843;48.838;9.324;2024-03-08T02:46:51;8.70;91.20
17452;DHT22;8843;48.838;9.324;2024-03-08T02:49:20;8.70;91.20
17452;DHT22;8843;48.838;9.324;2024-03-08T02:51:47;8.70;91.20
17452;DHT22;8843;48.838;9.324;2024-03-08T02:54:14;8.70;91.20
17452;DHT22;8843;48.838;9.324;2024-03-08T02:56:44;8.70;91.20
17452;DHT22;8843;48.838;9.324;2024-03-08T02:59:12;8.60;91.20
17452;DHT22;8843;48.838;9.324;2024-03-08T03:01:38;8.60;91.20
17452;DHT22;8843;48.838;9.324;2024-03-08T03:04:06;8.60;91.20
17452;DHT22;8843;48.838;9.324;2024-03-08T03:06:33;8.60;91.10
17452;DHT22;8843;48.838;9.324;2024-03-08T03:09:01;8.60;91.10
17452;DHT22;8843;48.838;9.324;2024-03-08T03:11:31;8.60;91.10
17452;DHT22;8843;48.838;9.324;2024-03-08T03:13:59;8.60;91.10
17452;DHT22;8843;48.838;9.324;2024-03-08T03:16:26;8.60;91.00
17452;DHT22;8843;48.838;9.324;2024-03-08T03:18:54;8.60;91.00
17452;DHT22;8843;48.838;9.324;2024-03-08T03:21:22;8.60;91.00
17452;DHT22;8843;48.838;9.324;2024-03-08T03:23:49;8.60;91.10
17452;DHT22;8843;48.838;9.324;2024-03-08T03:26:16;8.60;91.00
17452;DHT22;8843;48.838;9.324;2024-03-08T03:28:44;8.60;91.00
17452;DHT22;8843;48.838;9.324;2024-03-08T03:31:12;8.60;91.00
17452;DHT22;8843;48.838;9.324;2024-03-08T03:33:39;8.60;91.00
17452;DHT22;8843;48.838;9.324;2024-03-08T03:36:06;8.60;91.00
17452;DHT22;8843;48.838;9.324;2024-03-08T03:38:35;8.60;91.00
17452;DHT22;8843;48.838;9.324;2024-03-08T03:41:02;8.50;91.00
17452;DHT22;8843;48.838;9.324;2024-03-08T03:43:35;8.50;90.90
17452;DHT22;8843;48.838;9.324;2024-03-08T03:46:05;8.50;91.20
17452;DHT22;8843;48.838;9.324;2024-03-08T03:48:34;8.50;90.90
17452;DHT22;8843;48.838;9.324;2024-03-08T03:51:01;8.60;91.00
17452;DHT22;8843;48.838;9.324;2024-03-08T03:53:27;8.50;90.90
17452;DHT22;8843;48.838;9.324;2024-03-08T03:55:54;8.50;90.90
17452;DHT22;8843;48.838;9.324;2024-03-08T03:58:23;8.50;90.90
17452;DHT22;8843;48.838;9.324;2024-03-08T04:00:50;8.50;90.90
17452;DHT22;8843;48.838;9.324;2024-03-08T04:03:16;8.50;90.90
17452;DHT22;8843;48.838;9.324;2024-03-08T04:05:46;8.50;90.90
17452;DHT22;8843;48.838;9.324;2024-03-08T04:08:13;8.50;90.90
17452;DHT22;8843;48.838;9.324;2024-03-08T04:10:40;8.50;90.90
17452;DHT22;8843;48.838;9.324;2024-03-08T04:13:07;8.50;90.90
17452;DHT22;8843;48.838;9.324;2024-03-08T04:15:35;8.50;90.80
17452;DHT22;8843;48.838;9.324;2024-03-08T04:18:03;8.50;90.80
17452;DHT22;8843;48.838;9.324;2024-03-08T04:20:30;8.50;91.10
17452;DHT22;8843;48.838;9.324;2024-03-08T04:22:59;8.50;90.80
17452;DHT22;8843;48.838;9.324;2024-03-08T04:25:26;8.50;90.80
17452;DHT22;8843;48.838;9.324;2024-03-08T04:27:53;8.50;90.80
17452;DHT22;8843;48.838;9.324;2024-03-08T04:30:20;8.50;90.80
17452;DHT22;8843;48.838;9.324;2024-03-08T04:32:48;8.50;90.80
17452;DHT22;8843;48.838;9.324;2024-03-08T04:35:15;8.50;90.80
17452;DHT22;8843;48.838;9.324;2024-03-08T04:37:42;8.50;90.80
17452;DHT22;8843;48.838;9.324;2024-03-08T04:40:11;8.50;90.80
17452;DHT22;8843;48.838;9.324;2024-03-08T04:42:39;8.50;90.80
17452;DHT22;8843;48.838;9.324;2024-03-08T04:45:08;8.40;90.70
17452;DHT22;8843;48.838;9.324;2024-03-08T04:47:36;8.40;90.70
17452;DHT22;8843;48.838;9.324;2024-03-08T04:50:03;8.40;90.70
17452;DHT22;8843;48.838;9.324;2024-03-08T04:52:30;8.40;90.70
17452;DHT22;8843;48.838;9.324;2024-03-08T04:54:57;8.40;90.70
17452;DHT22;8843;48.838;9.324;2024-03-08T04:57:26;8.40;90.70
17452;DHT22;8843;48.838;9.324;2024-03-08T04:59:53;8.40;90.70
17452;DHT22;8843;48.838;9.324;2024-03-08T05:02:20;8.40;90.70
17452;DHT22;8843;48.838;9.324;2024-03-08T05:04:48;8.40;90.70
17452;DHT22;8843;48.838;9.324;2024-03-08T05:07:15;8.40;90.70
17452;DHT22;8843;48.838;9.324;2024-03-08T05:09:42;8.40;90.70
17452;DHT22;8843;48.838;9.324;2024-03-08T05:12:08;8.40;90.70
17452;DHT22;8843;48.838;9.324;2024-03-08T05:14:37;8.40;90.70
17452;DHT22;8843;48.838;9.324;2024-03-08T05:17:05;8.40;90.70
17452;DHT22;8843;48.838;9.324;2024-03-08T05:19:32;8.40;90.70
17452;DHT22;8843;48.838;9.324;2024-03-08T05:21:59;8.40;90.70
17452;DHT22;8843;48.838;9.324;2024-03-08T05:24:26;8.40;90.70
17452;DHT22;8843;48.838;9.324;2024-03-08T05:26:53;8.40;90.70
17452;DHT22;8843;48.838;9.324;2024-03-08T05:29:19;8.40;90.70
17452;DHT22;8843;48.838;9.324;2024-03-08T05:31:49;8.40;90.70
17452;DHT22;8843;48.838;9.324;2024-03-08T05:34:18;8.40;90.70
17452;DHT22;8843;48.838;9.324;2024-03-08T05:36:45;8.40;90.70
17452;DHT22;8843;48.838;9.324;2024-03-08T05:39:12;8.30;90.60
17452;DHT22;8843;48.838;9.324;2024-03-08T05:41:39;8.40;91.00
17452;DHT22;8843;48.838;9.324;2024-03-08T05:44:06;8.40;90.70
17452;DHT22;8843;48.838;9.324;2024-03-08T05:46:33;8.30;90.60
17452;DHT22;8843;48.838;9.324;2024-03-08T05:49:02;8.30;90.60
17452;DHT22;8843;48.838;9.324;2024-03-08T05:51:31;8.30;90.60
17452;DHT22;8843;48.838;9.324;2024-03-08T05:54:00;8.30;91.00
17452;DHT22;8843;48.838;9.324;2024-03-08T05:56:28;8.30;90.70
17452;DHT22;8843;48.838;9.324;2024-03-08T05:58:55;8.30;90.70
17452;DHT22;8843;48.838;9.324;2024-03-08T06:01:22;8.30;90.70
17452;DHT22;8843;48.838;9.324;2024-03-08T06:03:52;8.30;90.70
17452;DHT22;8843;48.838;9.324;2024-03-08T06:06:23;8.30;90.60
17452;DHT22;8843;48.838;9.324;2024-03-08T06:08:51;8.30;90.60
17452;DHT22;8843;48.838;9.324;2024-03-08T06:11:19;8.30;90.60
17452;DHT22;8843;48.838;9.324;2024-03-08T06:13:46;8.30;90.60
17452;DHT22;8843;48.838;9.324;2024-03-08T06:16:13;8.00;90.10
17452;DHT22;8843;48.838;9.324;2024-03-08T06:18:40;7.80;90.90
17452;DHT22;8843;48.838;9.324;2024-03-08T06:21:08;7.60;88.30
17452;DHT22;8843;48.838;9.324;2024-03-08T06:23:38;7.70;88.00
17452;DHT22;8843;48.838;9.324;2024-03-08T06:26:05;7.70;86.60
17452;DHT22;8843;48.838;9.324;2024-03-08T06:28:32;7.80;86.30
17452;DHT22;8843;48.838;9.324;2024-03-08T06:31:00;7.90;86.50
17452;DHT22;8843;48.838;9.324;2024-03-08T06:33:27;7.90;86.80
17452;DHT22;8843;48.838;9.324;2024-03-08T06:35:54;7.90;86.90
17452;DHT22;8843;48.838;9.324;2024-03-08T06:38:23;8.00;87.20
17452;DHT22;8843;48.838;9.324;2024-03-08T06:40:51;8.00;87.60
17452;DHT22;8843;48.838;9.324;2024-03-08T06:43:18;8.00;88.40
17452;DHT22;8843;48.838;9.324;2024-03-08T06:45:46;8.00;88.00
17452;DHT22;8843;48.838;9.324;2024-03-08T06:48:32;7.80;87.00
17452;DHT22;8843;48.838;9.324;2024-03-08T06:51:22;7.30;81.00
17452;DHT22;8843;48.838;9.324;2024-03-08T06:53:50;6.90;81.30
17452;DHT22;8843;48.838;9.324;2024-03-08T06:56:20;6.70;81.90
17452;DHT22;8843;48.838;9.324;2024-03-08T06:58:48;6.60;81.60
17452;DHT22;8843;48.838;9.324;2024-03-08T07:01:15;6.60;82.30
17452;DHT22;8843;48.838;9.324;2024-03-08T07:03:42;6.40;82.10
17452;DHT22;8843;48.838;9.324;2024-03-08T07:06:10;6.30;81.70
17452;DHT22;8843;48.838;9.324;2024-03-08T07:08:37;6.40;84.60
17452;DHT22;8843;48.838;9.324;2024-03-08T07:11:04;6.50;82.90
17452;DHT22;8843;48.838;9.324;2024-03-08T07:13:32;6.50;83.70
17452;DHT22;8843;48.838;9.324;2024-03-08T07:15:59;6.40;83.10
17452;DHT22;8843;48.838;9.324;2024-03-08T07:18:26;6.20;82.80
17452;DHT22;8843;48.838;9.324;2024-03-08T07:20:55;6.10;82.90
17452;DHT22;8843;48.838;9.324;2024-03-08T07:23:22;6.10;83.30
17452;DHT22;8843;48.838;9.324;2024-03-08T07:26:03;6.10;82.80
17452;DHT22;8843;48.838;9.324;2024-03-08T07:28:31;6.20;83.60
17452;DHT22;8843;48.838;9.324;2024-03-08T07:30:58;6.10;84.00
17452;DHT22;8843;48.838;9.324;2024-03-08T07:33:43;6.20;83.80
17452;DHT22;8843;48.838;9.324;2024-03-08T07:36:11;6.20;85.00
17452;DHT22;8843;48.838;9.324;2024-03-08T07:38:41;6.10;83.70
17452;DHT22;8843;48.838;9.324;2024-03-08T07:41:09;6.00;83.90
17452;DHT22;8843;48.838;9.324;2024-03-08T07:43:38;6.00;83.70
17452;DHT22;8843;48.838;9.324;2024-03-08T07:46:05;5.90;84.20
17452;DHT22;8843;48.838;9.324;2024-03-08T07:48:33;6.00;83.50
17452;DHT22;8843;48.838;9.324;2024-03-08T07:51:00;6.30;87.00
17452;DHT22;8843;48.838;9.324;2024-03-08T07:53:28;6.40;83.70
17452;DHT22;8843;48.838;9.324;2024-03-08T07:55:55;7.10;91.20
17452;DHT22;8843;48.838;9.324;2024-03-08T07:58:22;7.50;90.50
17452;DHT22;8843;48.838;9.324;2024-03-08T08:00:50;7.60;89.70
17452;DHT22;8843;48.838;9.324;2024-03-08T08:03:17;7.70;89.40
17452;DHT22;8843;48.838;9.324;2024-03-08T08:05:46;7.70;88.30
17452;DHT22;8843;48.838;9.324;2024-03-08T08:08:14;7.70;88.80
17452;DHT22;8843;48.838;9.324;2024-03-08T08:10:42;7.70;90.00
17452;DHT22;8843;48.838;9.324;2024-03-08T08:13:09;7.70;89.20
17452;DHT22;8843;48.838;9.324;2024-03-08T08:15:36;7.80;89.10
17452;DHT22;8843;48.838;9.324;2024-03-08T08:18:05;7.70;89.10
17452;DHT22;8843;48.838;9.324;2024-03-08T08:20:32;7.80;89.40
17452;DHT22;8843;48.838;9.324;2024-03-08T08:22:58;7.80;89.20
17452;DHT22;8843;48.838;9.324;2024-03-08T08:25:25;7.70;88.20
17452;DHT22;8843;48.838;9.324;2024-03-08T08:27:52;7.70;89.60
17452;DHT22;8843;48.838;9.324;2024-03-08T08:30:19;7.70;89.20
17452;DHT22;8843;48.838;9.324;2024-03-08T08:32:46;7.80;89.40
17452;DHT22;8843;48.838;9.324;2024-03-08T08:35:15;7.80;89.50
17452;DHT22;8843;48.838;9.324;2024-03-08T08:37:43;7.80;89.50
17452;DHT22;8843;48.838;9.324;2024-03-08T08:40:11;7.80;89.50
17452;DHT22;8843;48.838;9.324;2024-03-08T08:42:40;8.10;90.30
17452;DHT22;8843;48.838;9.324;2024-03-08T08:45:07;9.00;87.40
17452;DHT22;8843;48.838;9.324;2024-03-08T08:47:35;8.70;86.70
17452;DHT22;8843;48.838;9.324;2024-03-08T08:50:02;8.30;85.00
17452;DHT22;8843;48.838;9.324;2024-03-08T08:52:31;8.10;84.00
17452;DHT22;8843;48.838;9.324;2024-03-08T08:54:58;7.90;86.40
17452;DHT22;8843;48.838;9.324;2024-03-08T08:57:25;7.90;86.80
17452;DHT22;8843;48.838;9.324;2024-03-08T08:59:52;7.80;87.10
17452;DHT22;8843;48.838;9.324;2024-03-08T09:02:20;7.80;87.40
17452;DHT22;8843;48.838;9.324;2024-03-08T09:04:47;7.80;87.70
17452;DHT22;8843;48.838;9.324;2024-03-08T09:07:14;7.80;87.80
17452;DHT22;8843;48.838;9.324;2024-03-08T09:09:43;7.80;87.80
17452;DHT22;8843;48.838;9.324;2024-03-08T09:12:10;7.80;87.70
17452;DHT22;8843;48.838;9.324;2024-03-08T09:14:38;7.80;88.30
17452;DHT22;8843;48.838;9.324;2024-03-08T09:17:05;7.80;87.90
17452;DHT22;8843;48.838;9.324;2024-03-08T09:19:34;7.80;88.40
17452;DHT22;8843;48.838;9.324;2024-03-08T09:22:00;7.80;88.50
17452;DHT22;8843;48.838;9.324;2024-03-08T09:24:29;7.80;88.60
17452;DHT22;8843;48.838;9.324;2024-03-08T09:26:57;7.90;88.70
17452;DHT22;8843;48.838;9.324;2024-03-08T09:29:25;7.80;89.50
17452;DHT22;8843;48.838;9.324;2024-03-08T09:31:52;7.80;88.10
17452;DHT22;8843;48.838;9.324;2024-03-08T09:34:19;7.80;88.80
17452;DHT22;8843;48.838;9.324;2024-03-08T09:36:46;7.90;89.00
17452;DHT22;8843;48.838;9.324;2024-03-08T09:39:13;7.80;89.10
17452;DHT22;8843;48.838;9.324;2024-03-08T09:41:42;8.20;92.60
17452;DHT22;8843;48.838;9.324;2024-03-08T09:44:11;9.00;90.50
17452;DHT22;8843;48.838;9.324;2024-03-08T09:46:39;8.50;87.20
17452;DHT22;8843;48.838;9.324;2024-03-08T09:49:06;8.30;86.90
17452;DHT22;8843;48.838;9.324;2024-03-08T09:51:34;8.10;88.30
17452;DHT22;8843;48.838;9.324;2024-03-08T09:54:02;8.00;88.60
17452;DHT22;8843;48.838;9.324;2024-03-08T09:56:32;7.90;88.50
17452;DHT22;8843;48.838;9.324;2024-03-08T09:58:59;7.90;88.30
17452;DHT22;8843;48.838;9.324;2024-03-08T10:01:48;7.90;89.10
17452;DHT22;8843;48.838;9.324;2024-03-08T10:04:14;7.80;89.00
17452;DHT22;8843;48.838;9.324;2024-03-08T10:06:42;7.90;89.20
17452;DHT22;8843;48.838;9.324;2024-03-08T10:09:10;7.90;89.30
17452;DHT22;8843;48.838;9.324;2024-03-08T10:11:37;7.90;89.40
17452;DHT22;8843;48.838;9.324;2024-03-08T10:14:05;7.90;88.80
17452;DHT22;8843;48.838;9.324;2024-03-08T10:16:32;7.80;90.00
17452;DHT22;8843;48.838;9.324;2024-03-08T10:19:02;7.80;89.30
17452;DHT22;8843;48.838;9.324;2024-03-08T10:21:31;7.80;89.40
17452;DHT22;8843;48.838;9.324;2024-03-08T10:23:59;7.80;89.20
17452;DHT22;8843;48.838;9.324;2024-03-08T10:26:26;7.80;89.30
17452;DHT22;8843;48.838;9.324;2024-03-08T10:28:53;7.80;89.60
17452;DHT22;8843;48.838;9.324;2024-03-08T10:31:21;7.80;89.60
17452;DHT22;8843;48.838;9.324;2024-03-08T10:33:51;7.80;89.60
17452;DHT22;8843;48.838;9.324;2024-03-08T10:36:21;7.80;89.70
17452;DHT22;8843;48.838;9.324;2024-03-08T10:38:52;8.50;90.90
17452;DHT22;8843;48.838;9.324;2024-03-08T10:41:19;8.30;89.10
17452;DHT22;8843;48.838;9.324;2024-03-08T10:44:10;8.20;89.80
17452;DHT22;8843;48.838;9.324;2024-03-08T10:46:59;8.00;90.00
17452;DHT22;8843;48.838;9.324;2024-03-08T10:49:31;8.00;90.10
17452;DHT22;8843;48.838;9.324;2024-03-08T10:52:03;7.90;89.30
17452;DHT22;8843;48.838;9.324;2024-03-08T10:54:31;7.90;90.10
17452;DHT22;8843;48.838;9.324;2024-03-08T10:57:02;7.90;90.10
17452;DHT22;8843;48.838;9.324;2024-03-08T10:59:30;7.90;90.10
17452;DHT22;8843;48.838;9.324;2024-03-08T11:01:57;7.90;90.20
17452;DHT22;8843;48.838;9.324;2024-03-08T11:04:24;7.90;90.20
17452;DHT22;8843;48.838;9.324;2024-03-08T11:06:51;7.90;90.20
17452;DHT22;8843;48.838;9.324;2024-03-08T11:09:31;7.80;89.90
17452;DHT22;8843;48.838;9.324;2024-03-08T11:12:21;7.90;90.20
17452;DHT22;8843;48.838;9.324;2024-03-08T11:14:51;7.90;90.20
17452;DHT22;8843;48.838;9.324;2024-03-08T11:17:21;7.90;90.10
17452;DHT22;8843;48.838;9.324;2024-03-08T11:19:55;7.90;90.20
17452;DHT22;8843;48.838;9.324;2024-03-08T11:22:23;7.90;90.10
17452;DHT22;8843;48.838;9.324;2024-03-08T11:24:58;7.90;90.20
17452;DHT22;8843;48.838;9.324;2024-03-08T11:27:29;7.90;90.10
17452;DHT22;8843;48.838;9.324;2024-03-08T11:30:00;7.90;90.20
17452;DHT22;8843;48.838;9.324;2024-03-08T11:32:35;7.90;90.60
17452;DHT22;8843;48.838;9.324;2024-03-08T11:35:06;7.90;90.10
17452;DHT22;8843;48.838;9.324;2024-03-08T11:37:35;7.90;90.20
17452;DHT22;8843;48.838;9.324;2024-03-08T11:40:12;7.90;90.30
17452;DHT22;8843;48.838;9.324;2024-03-08T11:42:45;7.90;90.30
17452;DHT22;8843;48.838;9.324;2024-03-08T11:45:14;7.90;90.20
17452;DHT22;8843;48.838;9.324;2024-03-08T11:47:42;7.90;90.10
17452;DHT22;8843;48.838;9.324;2024-03-08T11:50:12;8.00;90.20
17452;DHT22;8843;48.838;9.324;2024-03-08T11:52:39;7.90;90.20
17452;DHT22;8843;48.838;9.324;2024-03-08T11:55:11;8.00;90.60
17452;DHT22;8843;48.838;9.324;2024-03-08T11:57:39;8.20;90.80
17452;DHT22;8843;48.838;9.324;2024-03-08T12:00:15;8.40;90.70
17452;DHT22;8843;48.838;9.324;2024-03-08T12:03:01;8.70;90.90
17452;DHT22;8843;48.838;9.324;2024-03-08T12:05:28;8.90;90.50
17452;DHT22;8843;48.838;9.324;2024-03-08T12:07:57;8.80;89.70
17452;DHT22;8843;48.838;9.324;2024-03-08T12:10:26;9.00;90.40
17452;DHT22;8843;48.838;9.324;2024-03-08T12:12:55;9.20;90.00
17452;DHT22;8843;48.838;9.324;2024-03-08T12:15:22;9.20;88.80
17452;DHT22;8843;48.838;9.324;2024-03-08T12:17:51;9.50;90.10
17452;DHT22;8843;48.838;9.324;2024-03-08T12:20:20;9.50;89.80
17452;DHT22;8843;48.838;9.324;2024-03-08T12:22:49;9.60;88.40
17452;DHT22;8843;48.838;9.324;2024-03-08T12:25:17;9.60;87.70
17452;DHT22;8843;48.838;9.324;2024-03-08T12:27:47;9.70;87.20
17452;DHT22;8843;48.838;9.324;2024-03-08T12:30:19;9.80;87.80
17452;DHT22;8843;48.838;9.324;2024-03-08T12:32:48;9.80;87.10
17452;DHT22;8843;48.838;9.324;2024-03-08T12:35:17;10.10;85.90
17452;DHT22;8843;48.838;9.324;2024-03-08T12:37:44;10.20;85.00
17452;DHT22;8843;48.838;9.324;2024-03-08T12:40:11;10.30;86.40
17452;DHT22;8843;48.838;9.324;2024-03-08T12:42:42;10.10;84.80
17452;DHT22;8843;48.838;9.324;2024-03-08T12:45:10;10.50;85.20
17452;DHT22;8843;48.838;9.324;2024-03-08T12:47:37;10.40;83.10
17452;DHT22;8843;48.838;9.324;2024-03-08T12:50:08;10.40;83.20
17452;DHT22;8843;48.838;9.324;2024-03-08T12:52:35;10.50;83.60
17452;DHT22;8843;48.838;9.324;2024-03-08T12:55:02;10.50;83.50
17452;DHT22;8843;48.838;9.324;2024-03-08T12:57:33;10.70;83.40
17452;DHT22;8843;48.838;9.324;2024-03-08T13:00:00;10.70;82.50
17452;DHT22;8843;48.838;9.324;2024-03-08T13:02:29;10.60;82.60
17452;DHT22;8843;48.838;9.324;2024-03-08T13:04:57;10.80;80.90
17452;DHT22;8843;48.838;9.324;2024-03-08T13:07:25;10.90;82.10
17452;DHT22;8843;48.838;9.324;2024-03-08T13:09:52;11.00;82.40
17452;DHT22;8843;48.838;9.324;2024-03-08T13:12:20;11.10;81.50
17452;DHT22;8843;48.838;9.324;2024-03-08T13:14:47;11.00;81.90
17452;DHT22;8843;48.838;9.324;2024-03-08T13:17:14;11.20;82.60
17452;DHT22;8843;48.838;9.324;2024-03-08T13:19:42;11.40;80.60
17452;DHT22;8843;48.838;9.324;2024-03-08T13:22:09;11.40;81.00
17452;DHT22;8843;48.838;9.324;2024-03-08T13:24:38;11.10;81.20
17452;DHT22;8843;48.838;9.324;2024-03-08T13:27:06;11.10;81.70
17452;DHT22;8843;48.838;9.324;2024-03-08T13:29:45;11.30;81.60
17452;DHT22;8843;48.838;9.324;2024-03-08T13:32:13;11.20;81.50
17452;DHT22;8843;48.838;9.324;2024-03-08T13:34:42;11.00;80.90
17452;DHT22;8843;48.838;9.324;2024-03-08T13:37:10;11.10;80.90
17452;DHT22;8843;48.838;9.324;2024-03-08T13:39:37;11.40;80.80
17452;DHT22;8843;48.838;9.324;2024-03-08T13:42:10;11.30;80.10
17452;DHT22;8843;48.838;9.324;2024-03-08T13:44:39;13.10;72.50
17452;DHT22;8843;48.838;9.324;2024-03-08T13:47:06;13.90;69.80
17452;DHT22;8843;48.838;9.324;2024-03-08T13:49:33;13.00;73.00
17452;DHT22;8843;48.838;9.324;2024-03-08T13:52:01;12.30;75.80
17452;DHT22;8843;48.838;9.324;2024-03-08T13:54:29;12.00;74.50
17452;DHT22;8843;48.838;9.324;2024-03-08T13:56:57;11.80;77.00
17452;DHT22;8843;48.838;9.324;2024-03-08T13:59:24;11.80;77.20
17452;DHT22;8843;48.838;9.324;2024-03-08T14:01:55;11.70;77.70
17452;DHT22;8843;48.838;9.324;2024-03-08T14:04:23;12.00;77.60
17452;DHT22;8843;48.838;9.324;2024-03-08T14:06:50;12.00;78.00
17452;DHT22;8843;48.838;9.324;2024-03-08T14:09:23;11.90;77.60
17452;DHT22;8843;48.838;9.324;2024-03-08T14:11:51;11.90;75.00
17452;DHT22;8843;48.838;9.324;2024-03-08T14:14:20;11.60;75.80
17452;DHT22;8843;48.838;9.324;2024-03-08T14:16:48;11.50;76.50
17452;DHT22;8843;48.838;9.324;2024-03-08T14:19:18;11.60;77.60
17452;DHT22;8843;48.838;9.324;2024-03-08T14:21:45;11.60;77.70
17452;DHT22;8843;48.838;9.324;2024-03-08T14:24:14;11.80;77.30
17452;DHT22;8843;48.838;9.324;2024-03-08T14:26:42;11.70;77.20
17452;DHT22;8843;48.838;9.324;2024-03-08T14:29:09;11.80;77.50
17452;DHT22;8843;48.838;9.324;2024-03-08T14:31:37;11.80;77.80
17452;DHT22;8843;48.838;9.324;2024-03-08T14:34:04;11.80;78.60
17452;DHT22;8843;48.838;9.324;2024-03-08T14:36:30;11.90;78.00
17452;DHT22;8843;48.838;9.324;2024-03-08T14:38:57;11.90;77.80
17452;DHT22;8843;48.838;9.324;2024-03-08T14:41:24;11.90;77.40
17452;DHT22;8843;48.838;9.324;2024-03-08T14:43:53;12.20;76.90
17452;DHT22;8843;48.838;9.324;2024-03-08T14:46:20;12.00;78.10
17452;DHT22;8843;48.838;9.324;2024-03-08T14:48:49;11.80;77.40
17452;DHT22;8843;48.838;9.324;2024-03-08T14:51:17;11.90;77.60
17452;DHT22;8843;48.838;9.324;2024-03-08T14:53:47;12.00;76.50
17452;DHT22;8843;48.838;9.324;2024-03-08T14:56:15;11.70;77.40
17452;DHT22;8843;48.838;9.324;2024-03-08T14:58:43;11.70;77.50
17452;DHT22;8843;48.838;9.324;2024-03-08T15:01:11;11.80;77.30
17452;DHT22;8843;48.838;9.324;2024-03-08T15:03:39;11.80;76.40
17452;DHT22;8843;48.838;9.324;2024-03-08T15:06:06;11.90;77.30
17452;DHT22;8843;48.838;9.324;2024-03-08T15:08:35;11.90;77.40
17452;DHT22;8843;48.838;9.324;2024-03-08T15:11:02;12.10;76.10
17452;DHT22;8843;48.838;9.324;2024-03-08T15:13:31;12.00;76.30
17452;DHT22;8843;48.838;9.324;2024-03-08T15:16:05;11.90;76.90
17452;DHT22;8843;48.838;9.324;2024-03-08T15:18:35;11.80;76.40
17452;DHT22;8843;48.838;9.324;2024-03-08T15:21:06;11.70;76.30
17452;DHT22;8843;48.838;9.324;2024-03-08T15:23:34;11.90;75.70
17452;DHT22;8843;48.838;9.324;2024-03-08T15:26:01;12.10;71.30
17452;DHT22;8843;48.838;9.324;2024-03-08T15:28:29;12.50;77.40
17452;DHT22;8843;48.838;9.324;2024-03-08T15:31:03;12.90;76.00
17452;DHT22;8843;48.838;9.324;2024-03-08T15:33:34;12.50;74.10
17452;DHT22;8843;48.838;9.324;2024-03-08T15:36:07;12.10;75.10
17452;DHT22;8843;48.838;9.324;2024-03-08T15:38:35;12.00;75.40
17452;DHT22;8843;48.838;9.324;2024-03-08T15:41:02;11.90;76.60
17452;DHT22;8843;48.838;9.324;2024-03-08T15:43:32;11.70;76.80
17452;DHT22;8843;48.838;9.324;2024-03-08T15:46:02;11.70;76.30
17452;DHT22;8843;48.838;9.324;2024-03-08T15:48:30;11.60;76.60
17452;DHT22;8843;48.838;9.324;2024-03-08T15:50:59;11.60;76.40
17452;DHT22;8843;48.838;9.324;2024-03-08T15:53:28;11.60;76.50
17452;DHT22;8843;48.838;9.324;2024-03-08T15:55:56;11.60;76.50
17452;DHT22;8843;48.838;9.324;2024-03-08T15:58:24;11.40;77.20
17452;DHT22;8843;48.838;9.324;2024-03-08T16:00:51;11.60;75.70
17452;DHT22;8843;48.838;9.324;2024-03-08T16:03:19;11.50;74.30
17452;DHT22;8843;48.838;9.324;2024-03-08T16:05:47;11.60;79.50